createdAt,value
2022-10-20T06:09:58.282Z,5.14
2022-10-20T06:14:58.192Z,5.35
2022-10-20T06:34:01.908Z,6.58
2022-10-20T06:48:18.623Z,6.69
2022-10-20T06:53:18.749Z,6.58
2022-10-20T06:58:17.997Z,6.79
2022-10-20T07:29:10.652Z,7.87
2022-10-20T07:36:36.083Z,8.21
2022-10-20T07:41:33.445Z,8.20
2022-10-20T07:51:40.132Z,8.53
2022-10-20T08:01:22.192Z,9.02
2022-10-20T08:06:06.829Z,9.09
2022-10-20T08:11:06.901Z,9.45
2022-10-20T08:17:24.795Z,9.96
2022-10-20T08:24:57.617Z,10.06
2022-10-20T08:30:12.255Z,10.40
2022-10-20T08:34:58.296Z,10.81
2022-10-20T08:39:56.992Z,11.32
2022-10-20T08:51:27.879Z,11.75
2022-10-20T08:56:27.914Z,12.20
2022-10-20T09:01:27.819Z,12.46
2022-10-20T09:11:43.400Z,11.94
2022-10-20T09:22:44.798Z,12.06
2022-10-20T09:39:05.619Z,13.71
2022-10-20T09:43:38.028Z,13.88
2022-10-20T09:49:07.898Z,14.06
2022-10-20T09:54:58.179Z,14.31
2022-10-20T10:03:57.645Z,14.29
2022-10-20T10:26:29.209Z,14.65
2022-10-20T10:50:49.737Z,15.41
2022-10-20T11:58:22.434Z,17.82
2022-10-20T12:13:00.586Z,17.99
2022-10-20T12:19:54.301Z,18.09
2022-10-20T12:24:54.418Z,18.34
2022-10-20T12:29:54.305Z,18.36
2022-10-20T12:34:53.937Z,18.44
2022-10-20T12:40:14.542Z,18.31
2022-10-20T12:44:54.315Z,18.37
2022-10-20T12:49:53.874Z,18.47
2022-10-20T12:54:53.810Z,18.77
2022-10-20T12:59:54.270Z,18.87
2022-10-20T13:04:53.714Z,18.86
2022-10-20T13:10:00.294Z,18.72
2022-10-20T13:14:54.508Z,18.86
2022-10-20T13:19:57.444Z,19.11
2022-10-20T13:24:56.682Z,19.25
2022-10-20T13:29:53.194Z,19.01
2022-10-20T13:34:53.216Z,18.97
2022-10-20T13:39:53.070Z,18.86
2022-10-20T13:44:53.174Z,18.83
2022-10-20T13:49:53.070Z,18.83
2022-10-20T13:54:52.912Z,18.39
2022-10-20T13:59:52.834Z,18.00
2022-10-20T14:04:52.981Z,18.02
2022-10-20T14:09:55.735Z,17.84
2022-10-20T14:15:02.261Z,17.82
2022-10-20T14:20:01.967Z,18.33
2022-10-20T14:24:59.568Z,18.40
2022-10-20T14:29:52.580Z,17.92
2022-10-20T14:34:52.355Z,18.04
2022-10-20T14:39:52.426Z,17.99
2022-10-20T14:44:52.225Z,17.81
2022-10-20T14:49:52.553Z,17.67
2022-10-20T14:54:52.094Z,17.64
2022-10-20T15:01:09.769Z,17.94
2022-10-20T15:08:34.654Z,17.73
2022-10-20T15:13:34.577Z,17.43
2022-10-20T15:18:37.923Z,17.00
2022-10-20T15:23:35.389Z,16.75
2022-10-20T15:28:34.094Z,16.67
2022-10-20T15:33:34.179Z,16.48
2022-10-20T15:38:34.261Z,16.50
2022-10-20T15:43:34.048Z,15.93
2022-10-20T15:48:33.865Z,15.78
2022-10-20T15:53:34.007Z,15.27
2022-10-20T15:58:39.708Z,14.94
2022-10-20T16:03:33.768Z,14.43
2022-10-20T16:08:33.708Z,14.52
2022-10-20T16:13:33.526Z,14.28
2022-10-20T16:18:33.575Z,13.92
2022-10-20T16:23:33.385Z,13.88
2022-10-20T16:28:33.299Z,14.09
2022-10-20T16:33:33.527Z,13.74
2022-10-20T16:38:37.291Z,13.81
2022-10-20T16:43:34.220Z,14.17
2022-10-20T16:48:34.655Z,13.84
2022-10-20T16:53:33.349Z,14.19
2022-10-20T16:58:35.946Z,14.31
2022-10-20T17:03:33.009Z,13.65
2022-10-20T17:08:32.932Z,14.46
2022-10-20T17:13:32.707Z,13.94
2022-10-20T17:18:32.749Z,13.89
2022-10-20T17:23:32.535Z,14.60
2022-10-20T17:28:33.760Z,14.34
2022-10-20T17:42:37.914Z,14.54
2022-10-20T17:47:37.010Z,14.69
2022-10-20T18:05:22.614Z,14.91
2022-10-20T18:10:19.088Z,15.12
2022-10-20T18:15:19.587Z,15.09
2022-10-20T18:20:18.775Z,14.62
2022-10-20T18:25:18.674Z,14.38
2022-10-20T18:30:18.514Z,14.17
2022-10-20T18:35:26.243Z,14.39
2022-10-20T18:40:18.265Z,14.53
2022-10-20T18:45:22.533Z,13.91
2022-10-20T18:50:19.217Z,13.81
2022-10-20T18:55:21.084Z,14.06
2022-10-20T19:01:46.945Z,14.24
2022-10-20T19:06:54.539Z,14.25
2022-10-20T19:11:46.687Z,14.31
2022-10-20T19:16:46.766Z,14.14
2022-10-20T19:21:46.630Z,14.34
2022-10-20T19:26:57.033Z,14.25
2022-10-20T19:31:47.490Z,14.43
2022-10-20T19:36:46.312Z,14.19
2022-10-20T19:41:46.436Z,14.07
2022-10-20T19:46:46.139Z,14.21
2022-10-20T19:51:49.177Z,14.35
2022-10-20T19:56:46.897Z,14.07
2022-10-20T20:01:45.984Z,14.21
2022-10-20T20:06:55.466Z,14.52
2022-10-20T20:14:53.205Z,14.53
2022-10-20T20:20:03.112Z,14.69
2022-10-20T20:26:47.097Z,14.88
2022-10-20T20:31:47.075Z,14.56
2022-10-20T20:36:47.319Z,14.78
2022-10-20T20:41:47.053Z,14.67
2022-10-20T20:46:46.780Z,14.43
2022-10-20T20:51:46.895Z,14.57
2022-10-20T20:56:47.539Z,14.13
